sensor_id;sensor_type;location;lat;lon;timestamp;pressure;altitude;pressure_sealevel;temperature;humidity
26865;BME280;40618;51.166;10.322;2024-03-29T00:00:45;95665.13;;;5.36;75.61
26865;BME280;40618;51.166;10.322;2024-03-29T00:03:11;95667.72;;;5.34;75.56
26865;BME280;40618;51.166;10.322;2024-03-29T00:05:37;95658.31;;;5.35;75.23
26865;BME280;40618;51.166;10.322;2024-03-29T00:08:03;95668.56;;;5.35;75.62
26865;BME280;40618;51.166;10.322;2024-03-29T00:10:29;95665.94;;;5.36;75.48
26865;BME280;40618;51.166;10.322;2024-03-29T00:12:54;95666.00;;;5.35;75.78
26865;BME280;40618;51.166;10.322;2024-03-29T00:15:20;95663.44;;;5.35;75.49
26865;BME280;40618;51.166;10.322;2024-03-29T00:17:45;95659.19;;;5.34;75.59
26865;BME280;40618;51.166;10.322;2024-03-29T00:20:11;95659.13;;;5.35;75.54
26865;BME280;40618;51.166;10.322;2024-03-29T00:22:37;95644.59;;;5.36;75.54
26865;BME280;40618;51.166;10.322;2024-03-29T00:25:03;95656.50;;;5.37;74.98
26865;BME280;40618;51.166;10.322;2024-03-29T00:27:29;95666.75;;;5.37;75.47
26865;BME280;40618;51.166;10.322;2024-03-29T00:29:56;95654.84;;;5.36;75.29
26865;BME280;40618;51.166;10.322;2024-03-29T00:32:22;95665.13;;;5.36;75.51
26865;BME280;40618;51.166;10.322;2024-03-29T00:34:50;95663.44;;;5.35;75.21
26865;BME280;40618;51.166;10.322;2024-03-29T00:37:17;95666.94;;;5.32;75.48
26865;BME280;40618;51.166;10.322;2024-03-29T00:39:42;95665.34;;;5.30;75.29
26865;BME280;40618;51.166;10.322;2024-03-29T00:42:08;95668.78;;;5.29;74.83
26865;BME280;40618;51.166;10.322;2024-03-29T00:44:35;95666.16;;;5.30;75.23
26865;BME280;40618;51.166;10.322;2024-03-29T00:47:03;95672.16;;;5.31;75.35
26865;BME280;40618;51.166;10.322;2024-03-29T00:49:29;95672.97;;;5.31;74.95
26865;BME280;40618;51.166;10.322;2024-03-29T00:51:55;95660.94;;;5.33;74.96
26865;BME280;40618;51.166;10.322;2024-03-29T00:54:21;95655.81;;;5.33;74.75
26865;BME280;40618;51.166;10.322;2024-03-29T00:56:52;95660.06;;;5.33;75.20
26865;BME280;40618;51.166;10.322;2024-03-29T00:59:18;95658.44;;;5.32;75.28
26865;BME280;40618;51.166;10.322;2024-03-29T01:01:44;95651.69;;;5.29;75.06
26865;BME280;40618;51.166;10.322;2024-03-29T01:04:10;95645.81;;;5.25;74.87
26865;BME280;40618;51.166;10.322;2024-03-29T01:06:37;95650.28;;;5.20;74.68
26865;BME280;40618;51.166;10.322;2024-03-29T01:09:04;95644.59;;;5.12;74.98
26865;BME280;40618;51.166;10.322;2024-03-29T01:11:30;95643.34;;;5.00;74.81
26865;BME280;40618;51.166;10.322;2024-03-29T01:13:56;95642.75;;;4.94;75.31
26865;BME280;40618;51.166;10.322;2024-03-29T01:16:22;95639.44;;;4.90;75.22
26865;BME280;40618;51.166;10.322;2024-03-29T01:18:48;95632.63;;;4.89;74.94
26865;BME280;40618;51.166;10.322;2024-03-29T01:21:14;95625.88;;;4.86;75.24
26865;BME280;40618;51.166;10.322;2024-03-29T01:23:39;95613.13;;;4.85;74.92
26865;BME280;40618;51.166;10.322;2024-03-29T01:26:06;95615.88;;;4.80;74.98
26865;BME280;40618;51.166;10.322;2024-03-29T01:28:33;95618.50;;;4.79;74.94
26865;BME280;40618;51.166;10.322;2024-03-29T01:30:59;95638.28;;;4.75;75.25
26865;BME280;40618;51.166;10.322;2024-03-29T01:33:25;95635.03;;;4.70;74.96
26865;BME280;40618;51.166;10.322;2024-03-29T01:35:52;95639.53;;;4.63;75.15
26865;BME280;40618;51.166;10.322;2024-03-29T01:38:18;95635.41;;;4.59;75.04
26865;BME280;40618;51.166;10.322;2024-03-29T01:40:43;95632.84;;;4.59;75.49
26865;BME280;40618;51.166;10.322;2024-03-29T01:43:09;95639.66;;;4.60;75.30
26865;BME280;40618;51.166;10.322;2024-03-29T01:45:38;95647.28;;;4.62;75.04
26865;BME280;40618;51.166;10.322;2024-03-29T01:48:05;95660.03;;;4.63;75.12
26865;BME280;40618;51.166;10.322;2024-03-29T01:50:32;95657.41;;;4.66;75.20
26865;BME280;40618;51.166;10.322;2024-03-29T01:52:59;95653.81;;;4.70;75.17
26865;BME280;40618;51.166;10.322;2024-03-29T01:55:25;95669.09;;;4.73;75.12
26865;BME280;40618;51.166;10.322;2024-03-29T01:57:52;95673.34;;;4.74;75.25
26865;BME280;40618;51.166;10.322;2024-03-29T02:00:18;95661.41;;;4.73;74.97
26865;BME280;40618;51.166;10.322;2024-03-29T02:02:45;95656.28;;;4.73;75.45
26865;BME280;40618;51.166;10.322;2024-03-29T02:05:11;95660.53;;;4.74;75.01
26865;BME280;40618;51.166;10.322;2024-03-29T02:07:37;95656.16;;;4.77;75.07
26865;BME280;40618;51.166;10.322;2024-03-29T02:10:03;95656.03;;;4.80;75.08
26865;BME280;40618;51.166;10.322;2024-03-29T02:12:32;95653.47;;;4.80;75.50
26865;BME280;40618;51.166;10.322;2024-03-29T02:14:58;95657.72;;;4.81;75.00
26865;BME280;40618;51.166;10.322;2024-03-29T02:17:24;95652.59;;;4.81;74.92
26865;BME280;40618;51.166;10.322;2024-03-29T02:19:50;95654.28;;;4.82;75.19
26865;BME280;40618;51.166;10.322;2024-03-29T02:22:17;95657.72;;;4.81;75.42
26865;BME280;40618;51.166;10.322;2024-03-29T02:24:44;95660.34;;;4.79;75.01
26865;BME280;40618;51.166;10.322;2024-03-29T02:27:09;95664.72;;;4.75;74.88
26865;BME280;40618;51.166;10.322;2024-03-29T02:29:35;95664.03;;;4.72;75.00
26865;BME280;40618;51.166;10.322;2024-03-29T02:32:05;95670.09;;;4.69;75.38
26865;BME280;40618;51.166;10.322;2024-03-29T02:34:31;95660.72;;;4.68;75.56
26865;BME280;40618;51.166;10.322;2024-03-29T02:36:56;95657.41;;;4.66;75.39
26865;BME280;40618;51.166;10.322;2024-03-29T02:39:22;95657.44;;;4.65;75.24
26865;BME280;40618;51.166;10.322;2024-03-29T02:41:48;95662.59;;;4.63;75.51
26865;BME280;40618;51.166;10.322;2024-03-29T02:44:13;95660.16;;;4.60;75.27
26865;BME280;40618;51.166;10.322;2024-03-29T02:46:41;95653.47;;;4.56;75.35
26865;BME280;40618;51.166;10.322;2024-03-29T02:49:07;95655.22;;;4.55;75.52
26865;BME280;40618;51.166;10.322;2024-03-29T02:51:34;95650.09;;;4.55;75.44
26865;BME280;40618;51.166;10.322;2024-03-29T02:54:00;95644.97;;;4.55;75.82
26865;BME280;40618;51.166;10.322;2024-03-29T02:56:25;95651.78;;;4.55;75.48
26865;BME280;40618;51.166;10.322;2024-03-29T02:58:52;95658.59;;;4.56;75.54
26865;BME280;40618;51.166;10.322;2024-03-29T03:01:18;95650.13;;;4.54;75.48
26865;BME280;40618;51.166;10.322;2024-03-29T03:03:43;95648.34;;;4.56;75.94
26865;BME280;40618;51.166;10.322;2024-03-29T03:06:09;95652.47;;;4.60;75.60
26865;BME280;40618;51.166;10.322;2024-03-29T03:08:34;95648.09;;;4.64;75.38
26865;BME280;40618;51.166;10.322;2024-03-29T03:11:19;95647.13;;;4.66;75.83
26865;BME280;40618;51.166;10.322;2024-03-29T03:13:45;95636.78;;;4.69;75.65
26865;BME280;40618;51.166;10.322;2024-03-29T03:16:10;95637.53;;;4.71;75.48
26865;BME280;40618;51.166;10.322;2024-03-29T03:18:36;95632.31;;;4.74;75.62
26865;BME280;40618;51.166;10.322;2024-03-29T03:21:01;95632.25;;;4.76;75.77
26865;BME280;40618;51.166;10.322;2024-03-29T03:23:27;95637.31;;;4.78;75.57
26865;BME280;40618;51.166;10.322;2024-03-29T03:25:57;95634.69;;;4.79;75.78
26865;BME280;40618;51.166;10.322;2024-03-29T03:28:24;95616.75;;;4.79;75.79
26865;BME280;40618;51.166;10.322;2024-03-29T03:30:53;95612.28;;;4.84;75.54
26865;BME280;40618;51.166;10.322;2024-03-29T03:33:20;95585.72;;;4.87;75.63
26865;BME280;40618;51.166;10.322;2024-03-29T03:35:46;95582.22;;;4.88;75.93
26865;BME280;40618;51.166;10.322;2024-03-29T03:38:12;95584.75;;;4.89;75.62
26865;BME280;40618;51.166;10.322;2024-03-29T03:40:38;95565.94;;;4.89;75.86
26865;BME280;40618;51.166;10.322;2024-03-29T03:43:05;95560.81;;;4.89;76.01
26865;BME280;40618;51.166;10.322;2024-03-29T03:45:39;95568.50;;;4.89;75.58
26865;BME280;40618;51.166;10.322;2024-03-29T03:48:07;95565.88;;;4.90;75.77
26865;BME280;40618;51.166;10.322;2024-03-29T03:50:35;95570.88;;;4.95;75.49
26865;BME280;40618;51.166;10.322;2024-03-29T03:53:01;95582.69;;;4.99;75.64
26865;BME280;40618;51.166;10.322;2024-03-29T03:55:27;95594.63;;;5.00;75.76
26865;BME280;40618;51.166;10.322;2024-03-29T03:57:53;95590.38;;;4.99;75.51
26865;BME280;40618;51.166;10.322;2024-03-29T04:00:20;95605.75;;;4.99;75.51
26865;BME280;40618;51.166;10.322;2024-03-29T04:02:50;95616.03;;;4.99;75.64
26865;BME280;40618;51.166;10.322;2024-03-29T04:05:17;95618.53;;;5.01;75.50
26865;BME280;40618;51.166;10.322;2024-03-29T04:07:44;95625.41;;;5.00;75.23
26865;BME280;40618;51.166;10.322;2024-03-29T04:10:10;95619.41;;;5.00;75.71
26865;BME280;40618;51.166;10.322;2024-03-29T04:12:35;95627.16;;;4.98;75.37
26865;BME280;40618;51.166;10.322;2024-03-29T04:15:01;95625.44;;;4.99;75.54
26865;BME280;40618;51.166;10.322;2024-03-29T04:17:28;95625.50;;;4.97;75.22
26865;BME280;40618;51.166;10.322;2024-03-29T04:19:58;95632.28;;;4.98;75.47
26865;BME280;40618;51.166;10.322;2024-03-29T04:22:25;95638.22;;;5.00;75.45
26865;BME280;40618;51.166;10.322;2024-03-29T04:24:52;95638.94;;;5.04;75.35
26865;BME280;40618;51.166;10.322;2024-03-29T04:27:18;95649.19;;;5.04;75.51
26865;BME280;40618;51.166;10.322;2024-03-29T04:29:44;95640.59;;;5.05;75.38
26865;BME280;40618;51.166;10.322;2024-03-29T04:32:09;95643.09;;;5.06;75.61
26865;BME280;40618;51.166;10.322;2024-03-29T04:34:35;95651.59;;;5.08;75.27
26865;BME280;40618;51.166;10.322;2024-03-29T04:37:01;95636.09;;;5.12;74.72
26865;BME280;40618;51.166;10.322;2024-03-29T04:39:27;95648.66;;;5.18;75.15
26865;BME280;40618;51.166;10.322;2024-03-29T04:41:53;95648.56;;;5.21;75.24
26865;BME280;40618;51.166;10.322;2024-03-29T04:44:27;95656.97;;;5.24;75.26
26865;BME280;40618;51.166;10.322;2024-03-29T04:46:53;95667.97;;;5.28;74.88
26865;BME280;40618;51.166;10.322;2024-03-29T04:49:22;95667.97;;;5.28;75.20
26865;BME280;40618;51.166;10.322;2024-03-29T04:51:55;95659.31;;;5.31;75.18
26865;BME280;40618;51.166;10.322;2024-03-29T04:54:22;95653.22;;;5.33;75.14
26865;BME280;40618;51.166;10.322;2024-03-29T04:56:48;95664.13;;;5.38;74.93
26865;BME280;40618;51.166;10.322;2024-03-29T04:59:13;95657.28;;;5.39;74.72
26865;BME280;40618;51.166;10.322;2024-03-29T05:01:42;95663.19;;;5.41;74.70
26865;BME280;40618;51.166;10.322;2024-03-29T05:04:09;95658.91;;;5.41;74.97
26865;BME280;40618;51.166;10.322;2024-03-29T05:06:35;95675.97;;;5.42;74.73
26865;BME280;40618;51.166;10.322;2024-03-29T05:09:01;95681.16;;;5.41;74.85
26865;BME280;40618;51.166;10.322;2024-03-29T05:11:27;95677.75;;;5.40;74.68
26865;BME280;40618;51.166;10.322;2024-03-29T05:13:52;95687.22;;;5.40;74.81
26865;BME280;40618;51.166;10.322;2024-03-29T05:16:18;95696.56;;;5.41;74.52
26865;BME280;40618;51.166;10.322;2024-03-29T05:18:43;95689.66;;;5.43;74.55
26865;BME280;40618;51.166;10.322;2024-03-29T05:21:09;95706.59;;;5.47;74.93
26865;BME280;40618;51.166;10.322;2024-03-29T05:23:34;95704.94;;;5.46;74.62
26865;BME280;40618;51.166;10.322;2024-03-29T05:26:00;95705.00;;;5.45;74.88
26865;BME280;40618;51.166;10.322;2024-03-29T05:28:26;95699.97;;;5.41;74.59
26865;BME280;40618;51.166;10.322;2024-03-29T05:30:52;95700.06;;;5.38;74.80
26865;BME280;40618;51.166;10.322;2024-03-29T05:33:17;95695.94;;;5.34;74.93
26865;BME280;40618;51.166;10.322;2024-03-29T05:35:43;95697.81;;;5.31;75.00
26865;BME280;40618;51.166;10.322;2024-03-29T05:38:09;95694.44;;;5.29;75.31
26865;BME280;40618;51.166;10.322;2024-03-29T05:40:34;95682.56;;;5.26;75.05
26865;BME280;40618;51.166;10.322;2024-03-29T05:43:00;95686.06;;;5.25;75.40
26865;BME280;40618;51.166;10.322;2024-03-29T05:45:30;95673.25;;;5.23;75.60
26865;BME280;40618;51.166;10.322;2024-03-29T05:47:57;95667.28;;;5.23;76.06
26865;BME280;40618;51.166;10.322;2024-03-29T05:50:25;95655.34;;;5.22;75.93
26865;BME280;40618;51.166;10.322;2024-03-29T05:52:51;95659.66;;;5.21;75.93
26865;BME280;40618;51.166;10.322;2024-03-29T05:55:17;95648.56;;;5.21;76.11
26865;BME280;40618;51.166;10.322;2024-03-29T05:57:43;95650.28;;;5.20;76.49
26865;BME280;40618;51.166;10.322;2024-03-29T06:00:14;95641.69;;;5.21;76.42
26865;BME280;40618;51.166;10.322;2024-03-29T06:02:41;95633.94;;;5.23;76.65
26865;BME280;40618;51.166;10.322;2024-03-29T06:05:08;95638.94;;;5.26;76.92
26865;BME280;40618;51.166;10.322;2024-03-29T06:07:34;95628.59;;;5.29;76.90
26865;BME280;40618;51.166;10.322;2024-03-29T06:10:00;95631.91;;;5.31;77.03
26865;BME280;40618;51.166;10.322;2024-03-29T06:12:29;95637.84;;;5.33;76.85
26865;BME280;40618;51.166;10.322;2024-03-29T06:14:55;95638.59;;;5.35;77.26
26865;BME280;40618;51.166;10.322;2024-03-29T06:17:39;95644.59;;;5.36;77.19
26865;BME280;40618;51.166;10.322;2024-03-29T06:20:05;95636.91;;;5.34;77.22
26865;BME280;40618;51.166;10.322;2024-03-29T06:22:31;95648.88;;;5.35;77.24
26865;BME280;40618;51.166;10.322;2024-03-29T06:24:57;95634.34;;;5.34;77.24
26865;BME280;40618;51.166;10.322;2024-03-29T06:27:32;95638.59;;;5.35;77.39
26865;BME280;40618;51.166;10.322;2024-03-29T06:29:58;95638.53;;;5.37;77.30
26865;BME280;40618;51.166;10.322;2024-03-29T06:32:24;95639.31;;;5.39;77.56
26865;BME280;40618;51.166;10.322;2024-03-29T06:34:50;95633.31;;;5.40;77.44
26865;BME280;40618;51.166;10.322;2024-03-29T06:37:15;95631.56;;;5.40;77.66
26865;BME280;40618;51.166;10.322;2024-03-29T06:39:41;95629.75;;;5.42;77.91
26865;BME280;40618;51.166;10.322;2024-03-29T06:42:09;95625.47;;;5.43;77.48
26865;BME280;40618;51.166;10.322;2024-03-29T06:44:35;95628.03;;;5.43;78.13
26865;BME280;40618;51.166;10.322;2024-03-29T06:47:02;95640.00;;;5.44;78.00
26865;BME280;40618;51.166;10.322;2024-03-29T06:49:28;95653.66;;;5.45;77.77
26865;BME280;40618;51.166;10.322;2024-03-29T06:51:53;95651.09;;;5.45;77.97
26865;BME280;40618;51.166;10.322;2024-03-29T06:54:21;95661.41;;;5.43;78.22
26865;BME280;40618;51.166;10.322;2024-03-29T06:56:48;95656.34;;;5.41;78.05
26865;BME280;40618;51.166;10.322;2024-03-29T06:59:14;95655.41;;;5.42;78.14
26865;BME280;40618;51.166;10.322;2024-03-29T07:01:40;95656.28;;;5.43;78.34
26865;BME280;40618;51.166;10.322;2024-03-29T07:04:05;95648.56;;;5.43;78.36
26865;BME280;40618;51.166;10.322;2024-03-29T07:06:31;95652.03;;;5.42;78.66
26865;BME280;40618;51.166;10.322;2024-03-29T07:08:57;95659.66;;;5.43;78.48
26865;BME280;40618;51.166;10.322;2024-03-29T09:28:13;95648.94;;;6.21;83.60
26865;BME280;40618;51.166;10.322;2024-03-29T09:30:38;95646.22;;;6.24;83.58
26865;BME280;40618;51.166;10.322;2024-03-29T09:33:04;95649.50;;;6.28;83.66
26865;BME280;40618;51.166;10.322;2024-03-29T09:35:36;95652.69;;;6.33;83.82
26865;BME280;40618;51.166;10.322;2024-03-29T09:38:02;95653.41;;;6.36;83.69
26865;BME280;40618;51.166;10.322;2024-03-29T09:40:29;95654.06;;;6.41;83.97
26865;BME280;40618;51.166;10.322;2024-03-29T09:43:00;95648.72;;;6.46;83.89
26865;BME280;40618;51.166;10.322;2024-03-29T09:45:34;95675.97;;;6.50;84.08
26865;BME280;40618;51.166;10.322;2024-03-29T09:48:03;95666.47;;;6.52;83.88
26865;BME280;40618;51.166;10.322;2024-03-29T09:50:31;95672.31;;;6.56;83.78
26865;BME280;40618;51.166;10.322;2024-03-29T09:52:58;95672.22;;;6.57;84.42
26865;BME280;40618;51.166;10.322;2024-03-29T09:55:24;95672.22;;;6.57;84.09
26865;BME280;40618;51.166;10.322;2024-03-29T09:57:50;95685.94;;;6.58;83.72
26865;BME280;40618;51.166;10.322;2024-03-29T10:00:17;95681.69;;;6.57;84.01
26865;BME280;40618;51.166;10.322;2024-03-29T10:02:43;95691.09;;;6.58;84.05
26865;BME280;40618;51.166;10.322;2024-03-29T10:05:11;95701.44;;;6.56;84.32
26865;BME280;40618;51.166;10.322;2024-03-29T10:07:38;95706.50;;;6.58;84.25
26865;BME280;40618;51.166;10.322;2024-03-29T10:10:05;95702.13;;;6.60;84.63
26865;BME280;40618;51.166;10.322;2024-03-29T10:12:31;95707.34;;;6.58;83.98
26865;BME280;40618;51.166;10.322;2024-03-29T10:14:57;95710.75;;;6.59;84.20
26865;BME280;40618;51.166;10.322;2024-03-29T10:17:44;95713.34;;;6.59;84.09
26865;BME280;40618;51.166;10.322;2024-03-29T10:20:11;95713.19;;;6.62;84.50
26865;BME280;40618;51.166;10.322;2024-03-29T10:22:43;95709.75;;;6.63;84.56
26865;BME280;40618;51.166;10.322;2024-03-29T10:25:13;95709.66;;;6.65;84.54
26865;BME280;40618;51.166;10.322;2024-03-29T10:27:40;95701.06;;;6.66;84.28
26865;BME280;40618;51.166;10.322;2024-03-29T10:30:09;95712.09;;;6.68;84.54
26865;BME280;40618;51.166;10.322;2024-03-29T10:32:42;95707.75;;;6.70;84.23
26865;BME280;40618;51.166;10.322;2024-03-29T10:35:52;95694.66;;;6.74;84.97
26865;BME280;40618;51.166;10.322;2024-03-29T10:38:40;95715.09;;;6.77;84.88
26865;BME280;40618;51.166;10.322;2024-03-29T10:41:06;95709.81;;;6.81;85.16
26865;BME280;40618;51.166;10.322;2024-03-29T10:43:33;95715.63;;;6.86;84.55
26865;BME280;40618;51.166;10.322;2024-03-29T10:46:02;95718.00;;;6.90;84.88
26865;BME280;40618;51.166;10.322;2024-03-29T10:48:30;95711.81;;;6.94;84.95
26865;BME280;40618;51.166;10.322;2024-03-29T10:50:58;95712.50;;;6.98;84.83
26865;BME280;40618;51.166;10.322;2024-03-29T10:53:26;95705.44;;;7.03;85.07
26865;BME280;40618;51.166;10.322;2024-03-29T10:55:59;95714.69;;;7.07;84.80
26865;BME280;40618;51.166;10.322;2024-03-29T10:58:30;95704.13;;;7.14;85.18
26865;BME280;40618;51.166;10.322;2024-03-29T11:00:59;95697.72;;;7.22;84.87
26865;BME280;40618;51.166;10.322;2024-03-29T11:03:37;95702.78;;;7.24;84.51
26865;BME280;40618;51.166;10.322;2024-03-29T11:06:05;95687.16;;;7.28;84.69
26865;BME280;40618;51.166;10.322;2024-03-29T11:08:36;95702.16;;;7.38;84.63
26865;BME280;40618;51.166;10.322;2024-03-29T11:11:05;95703.78;;;7.40;84.24
26865;BME280;40618;51.166;10.322;2024-03-29T11:13:58;95701.75;;;7.47;85.04
26865;BME280;40618;51.166;10.322;2024-03-29T11:16:37;95699.66;;;7.55;84.34
26865;BME280;40618;51.166;10.322;2024-03-29T11:19:12;95701.13;;;7.61;84.12
26865;BME280;40618;51.166;10.322;2024-03-29T11:21:39;95690.47;;;7.69;85.02
26865;BME280;40618;51.166;10.322;2024-03-29T11:24:07;95700.41;;;7.76;84.62
26865;BME280;40618;51.166;10.322;2024-03-29T11:26:34;95684.56;;;7.84;84.91
26865;BME280;40618;51.166;10.322;2024-03-29T11:29:00;95688.31;;;7.96;84.82
26865;BME280;40618;51.166;10.322;2024-03-29T11:31:27;95689.59;;;8.05;84.78
26865;BME280;40618;51.166;10.322;2024-03-29T11:33:57;95704.56;;;8.16;84.16
26865;BME280;40618;51.166;10.322;2024-03-29T11:36:28;95706.63;;;8.26;84.60
26865;BME280;40618;51.166;10.322;2024-03-29T11:38:56;95691.53;;;8.36;84.47
26865;BME280;40618;51.166;10.322;2024-03-29T11:41:26;95687.88;;;8.40;84.09
26865;BME280;40618;51.166;10.322;2024-03-29T11:43:56;95681.00;;;8.41;84.44
26865;BME280;40618;51.166;10.322;2024-03-29T11:46:22;95675.63;;;8.45;83.99
26865;BME280;40618;51.166;10.322;2024-03-29T11:48:49;95681.56;;;8.48;84.06
26865;BME280;40618;51.166;10.322;2024-03-29T11:51:21;95675.47;;;8.49;83.39
26865;BME280;40618;51.166;10.322;2024-03-29T11:53:49;95682.13;;;8.53;84.00
26865;BME280;40618;51.166;10.322;2024-03-29T11:56:18;95683.91;;;8.52;83.88
26865;BME280;40618;51.166;10.322;2024-03-29T11:58:45;95689.22;;;8.49;83.91
26865;BME280;40618;51.166;10.322;2024-03-29T12:01:13;95696.25;;;8.45;84.10
26865;BME280;40618;51.166;10.322;2024-03-29T12:03:41;95687.78;;;8.42;83.23
26865;BME280;40618;51.166;10.322;2024-03-29T12:06:08;95684.41;;;8.41;83.70
26865;BME280;40618;51.166;10.322;2024-03-29T12:08:39;95692.13;;;8.41;83.66
26865;BME280;40618;51.166;10.322;2024-03-29T12:11:07;95692.97;;;8.42;83.90
26865;BME280;40618;51.166;10.322;2024-03-29T12:13:33;95699.72;;;8.44;83.94
26865;BME280;40618;51.166;10.322;2024-03-29T12:16:00;95710.84;;;8.46;83.40
26865;BME280;40618;51.166;10.322;2024-03-29T12:18:27;95713.53;;;8.43;83.37
26865;BME280;40618;51.166;10.322;2024-03-29T12:20:53;95714.59;;;8.39;83.51
26865;BME280;40618;51.166;10.322;2024-03-29T12:23:21;95713.75;;;8.39;83.82
26865;BME280;40618;51.166;10.322;2024-03-29T12:25:49;95695.69;;;8.39;83.87
26865;BME280;40618;51.166;10.322;2024-03-29T12:28:21;95702.59;;;8.38;83.53
26865;BME280;40618;51.166;10.322;2024-03-29T12:30:55;95705.09;;;8.40;83.84
26865;BME280;40618;51.166;10.322;2024-03-29T12:34:20;95698.13;;;8.42;83.51
26865;BME280;40618;51.166;10.322;2024-03-29T12:37:50;95690.94;;;8.49;84.20
26865;BME280;40618;51.166;10.322;2024-03-29T12:40:29;95703.72;;;8.52;83.79
26865;BME280;40618;51.166;10.322;2024-03-29T12:43:55;95694.94;;;8.54;84.33
26865;BME280;40618;51.166;10.322;2024-03-29T12:46:51;95677.50;;;8.59;84.29
26865;BME280;40618;51.166;10.322;2024-03-29T12:50:19;95680.41;;;8.71;84.22
26865;BME280;40618;51.166;10.322;2024-03-29T12:53:06;95702.47;;;8.76;84.23
26865;BME280;40618;51.166;10.322;2024-03-29T12:55:47;95703.22;;;8.78;83.68
26865;BME280;40618;51.166;10.322;2024-03-29T12:58:17;95709.22;;;8.79;83.40
26865;BME280;40618;51.166;10.322;2024-03-29T13:00:55;95699.72;;;8.79;83.54
26865;BME280;40618;51.166;10.322;2024-03-29T13:04:05;95713.38;;;8.81;84.23
26865;BME280;40618;51.166;10.322;2024-03-29T13:07:00;95715.13;;;8.81;83.78
26865;BME280;40618;51.166;10.322;2024-03-29T13:09:32;95727.94;;;8.83;84.33
26865;BME280;40618;51.166;10.322;2024-03-29T13:12:00;95738.09;;;8.86;84.47
26865;BME280;40618;51.166;10.322;2024-03-29T13:14:56;95723.47;;;8.86;84.19
26865;BME280;40618;51.166;10.322;2024-03-29T13:22:08;95711.13;;;8.75;83.74
26865;BME280;40618;51.166;10.322;2024-03-29T13:25:05;95711.34;;;8.71;84.88
26865;BME280;40618;51.166;10.322;2024-03-29T13:31:39;95683.28;;;8.64;84.62
26865;BME280;40618;51.166;10.322;2024-03-29T13:35:44;95673.94;;;8.62;84.43
26865;BME280;40618;51.166;10.322;2024-03-29T13:49:41;95717.19;;;8.57;85.07
26865;BME280;40618;51.166;10.322;2024-03-29T13:52:49;95726.84;;;8.53;85.04
26865;BME280;40618;51.166;10.322;2024-03-29T14:00:16;95739.22;;;8.46;86.15
26865;BME280;40618;51.166;10.322;2024-03-29T14:02:46;95740.94;;;8.46;86.05
26865;BME280;40618;51.166;10.322;2024-03-29T14:08:37;95751.38;;;8.43;86.08
26865;BME280;40618;51.166;10.322;2024-03-29T14:11:03;95763.44;;;8.42;85.77
26865;BME280;40618;51.166;10.322;2024-03-29T14:13:29;95770.34;;;8.42;86.10
26865;BME280;40618;51.166;10.322;2024-03-29T14:15:54;95778.16;;;8.40;85.77
26865;BME280;40618;51.166;10.322;2024-03-29T14:18:24;95777.31;;;8.40;86.38
26865;BME280;40618;51.166;10.322;2024-03-29T14:20:50;95786.81;;;8.39;86.01
26865;BME280;40618;51.166;10.322;2024-03-29T14:23:16;95786.81;;;8.39;86.16
26865;BME280;40618;51.166;10.322;2024-03-29T14:25:44;95783.38;;;8.39;86.37
26865;BME280;40618;51.166;10.322;2024-03-29T14:28:10;95787.81;;;8.37;86.48
26865;BME280;40618;51.166;10.322;2024-03-29T14:30:35;95788.63;;;8.37;86.34
26865;BME280;40618;51.166;10.322;2024-03-29T14:33:01;95793.03;;;8.35;86.28
26865;BME280;40618;51.166;10.322;2024-03-29T14:35:32;95794.84;;;8.33;86.87
26865;BME280;40618;51.166;10.322;2024-03-29T14:37:58;95794.09;;;8.31;86.45
26865;BME280;40618;51.166;10.322;2024-03-29T14:40:24;95797.56;;;8.30;86.86
26865;BME280;40618;51.166;10.322;2024-03-29T14:42:52;95791.56;;;8.29;86.95
26865;BME280;40618;51.166;10.322;2024-03-29T14:45:19;95786.41;;;8.29;86.94
26865;BME280;40618;51.166;10.322;2024-03-29T14:47:44;95781.25;;;8.29;87.03
26865;BME280;40618;51.166;10.322;2024-03-29T14:50:10;95765.72;;;8.31;86.96
26865;BME280;40618;51.166;10.322;2024-03-29T14:52:36;95756.16;;;8.33;87.15
26865;BME280;40618;51.166;10.322;2024-03-29T14:55:05;95749.19;;;8.35;86.96
26865;BME280;40618;51.166;10.322;2024-03-29T14:57:31;95732.72;;;8.38;87.64
26865;BME280;40618;51.166;10.322;2024-03-29T14:59:57;95730.91;;;8.40;87.61
26865;BME280;40618;51.166;10.322;2024-03-29T15:02:23;95731.59;;;8.43;87.84
26865;BME280;40618;51.166;10.322;2024-03-29T15:04:50;95733.25;;;8.44;87.50
26865;BME280;40618;51.166;10.322;2024-03-29T15:07:15;95737.53;;;8.45;87.40
26865;BME280;40618;51.166;10.322;2024-03-29T15:09:41;95742.69;;;8.45;87.52
26865;BME280;40618;51.166;10.322;2024-03-29T15:12:07;95744.28;;;8.48;87.93
26865;BME280;40618;51.166;10.322;2024-03-29T15:14:34;95743.31;;;8.51;88.37
26865;BME280;40618;51.166;10.322;2024-03-29T15:17:01;95739.03;;;8.50;87.82
26865;BME280;40618;51.166;10.322;2024-03-29T15:19:27;95737.25;;;8.52;87.80
26865;BME280;40618;51.166;10.322;2024-03-29T15:21:54;95736.31;;;8.53;88.35
26865;BME280;40618;51.166;10.322;2024-03-29T15:24:21;95745.81;;;8.52;87.61
26865;BME280;40618;51.166;10.322;2024-03-29T15:26:47;95750.13;;;8.52;87.76
26865;BME280;40618;51.166;10.322;2024-03-29T15:29:13;95754.53;;;8.50;88.21
26865;BME280;40618;51.166;10.322;2024-03-29T15:31:41;95753.63;;;8.51;87.98
26865;BME280;40618;51.166;10.322;2024-03-29T15:34:09;95759.59;;;8.51;88.20
26865;BME280;40618;51.166;10.322;2024-03-29T15:36:36;95748.53;;;8.49;88.20
26865;BME280;40618;51.166;10.322;2024-03-29T15:39:04;95756.28;;;8.49;88.47
26865;BME280;40618;51.166;10.322;2024-03-29T15:41:34;95748.38;;;8.52;88.46
26865;BME280;40618;51.166;10.322;2024-03-29T15:44:02;95758.63;;;8.54;88.34
26865;BME280;40618;51.166;10.322;2024-03-29T15:46:29;95763.78;;;8.54;88.09
26865;BME280;40618;51.166;10.322;2024-03-29T15:48:55;95763.78;;;8.54;88.25
26865;BME280;40618;51.166;10.322;2024-03-29T15:51:21;95761.13;;;8.55;87.75
26865;BME280;40618;51.166;10.322;2024-03-29T15:53:48;95760.13;;;8.58;88.04
26865;BME280;40618;51.166;10.322;2024-03-29T15:56:15;95748.75;;;8.62;88.77